Time;durP1;ratioP1;P1;durP2;ratioP2;P2;SDS_P1;SDS_P2;PMS_P1;PMS_P2;Temp;Humidity;BMP_temperature;BMP_pressure;BME280_temperature;BME280_humidity;BME280_pressure;Samples;Min_cycle;Max_cycle;Signal;HPM_P1;HPM_P2
2023/11/05 00:02:20;;;;;;;1.00;0.70;;;9.00;89.60;;;10.27;63.63;94239.00;5073153;28;20471;-51
2023/11/05 00:04:48;;;;;;;0.90;0.70;;;9.00;88.80;;;10.40;63.53;94244.00;5073703;28;20047;-53
2023/11/05 00:07:16;;;;;;;0.50;0.50;;;9.00;89.00;;;10.44;63.36;94241.69;5072700;28;20511;-52
2023/11/05 00:09:43;;;;;;;1.27;0.70;;;9.00;88.50;;;10.48;63.35;94234.03;5073324;28;20431;-54
2023/11/05 00:12:11;;;;;;;1.00;0.90;;;9.00;88.30;;;10.42;63.33;94212.66;5072997;28;20052;-53
2023/11/05 00:14:39;;;;;;;0.50;0.43;;;9.00;88.40;;;10.48;63.19;94212.75;5072932;28;20032;-54
2023/11/05 00:17:06;;;;;;;1.57;0.90;;;9.00;88.10;;;10.41;63.09;94205.75;5073130;28;20407;-54
2023/11/05 00:19:34;;;;;;;1.87;1.00;;;9.00;88.00;;;10.41;62.86;94199.59;5073296;28;20041;-53
2023/11/05 00:22:01;;;;;;;3.30;1.40;;;9.00;88.60;;;10.45;62.99;94203.41;5072880;28;20048;-53
2023/11/05 00:24:29;;;;;;;2.17;1.00;;;9.00;87.80;;;10.29;63.49;94193.56;5071828;28;20041;-52
2023/11/05 00:26:57;;;;;;;2.33;1.00;;;9.00;87.30;;;10.37;63.29;94196.66;5073016;28;20048;-54
2023/11/05 00:29:24;;;;;;;1.17;0.90;;;9.00;87.60;;;10.43;63.11;94186.91;5063829;28;20049;-53
2023/11/05 00:31:53;;;;;;;1.90;0.63;;;9.00;87.60;;;10.44;62.65;94185.84;5054019;28;20067;-53
2023/11/05 00:34:20;;;;;;;0.47;0.43;;;9.10;87.00;;;10.47;62.89;94182.69;5072702;28;20416;-54
2023/11/05 00:36:48;;;;;;;0.73;0.50;;;9.10;86.70;;;10.49;62.92;94174.44;5073034;28;20516;-50
2023/11/05 00:39:16;;;;;;;1.10;0.80;;;9.10;86.30;;;10.42;62.80;94175.44;5072334;28;20416;-54
2023/11/05 00:41:44;;;;;;;0.80;0.60;;;9.10;86.40;;;10.42;62.88;94159.47;5054440;28;20067;-51
2023/11/05 00:44:12;;;;;;;0.57;0.57;;;9.00;86.00;;;10.44;62.57;94160.03;5072576;28;20041;-52
2023/11/05 00:46:39;;;;;;;0.60;0.60;;;9.10;86.30;;;10.48;62.46;94165.69;5054492;28;20052;-53
2023/11/05 00:49:09;;;;;;;0.87;0.60;;;9.10;86.20;;;10.49;62.28;94161.97;5053845;28;20052;-52
2023/11/05 00:51:36;;;;;;;0.60;0.50;;;9.00;85.60;;;10.57;62.09;94155.44;5054260;28;20045;-50
2023/11/05 00:54:04;;;;;;;0.70;0.53;;;9.10;86.10;;;10.54;62.31;94155.91;5072573;28;20041;-54
2023/11/05 00:56:32;;;;;;;0.80;0.60;;;9.10;85.10;;;10.59;61.99;94151.47;5072562;28;20059;-51
2023/11/05 00:59:01;;;;;;;0.40;0.37;;;9.10;85.30;;;10.58;61.91;94141.06;5072380;28;20064;-52
2023/11/05 01:01:29;;;;;;;0.90;0.63;;;9.10;85.20;;;10.62;61.53;94137.69;5064139;28;20052;-53
2023/11/05 01:03:56;;;;;;;1.50;0.53;;;9.10;84.40;;;10.62;61.66;94136.88;5054504;28;20056;-50
2023/11/05 01:06:24;;;;;;;0.50;0.50;;;9.10;84.70;;;10.54;61.56;94130.13;5054076;28;20044;-51
2023/11/05 01:08:52;;;;;;;1.30;0.70;;;9.10;83.60;;;10.56;61.29;94132.53;5072346;28;20439;-50
2023/11/05 01:11:20;;;;;;;1.67;0.47;;;9.10;84.30;;;10.51;61.19;94117.31;5053610;28;20049;-50
2023/11/05 01:13:48;;;;;;;0.50;0.50;;;9.10;84.00;;;10.59;61.33;94116.88;5054258;28;20037;-52
2023/11/05 01:16:15;;;;;;;2.00;0.50;;;9.10;84.00;;;10.59;61.27;94121.41;5053957;28;20439;-54
2023/11/05 01:18:43;;;;;;;0.40;0.40;;;9.20;83.80;;;10.67;60.86;94122.84;5071831;28;20052;-52
2023/11/05 01:21:12;;;;;;;0.67;0.40;;;9.20;83.00;;;10.64;60.84;94098.34;5071399;28;20060;-50
2023/11/05 01:23:41;;;;;;;0.57;0.50;;;9.20;83.40;;;10.67;61.08;94105.00;5071918;28;20049;-53
2023/11/05 01:26:08;;;;;;;0.67;0.50;;;9.20;82.50;;;10.55;60.99;94093.72;5053750;28;20045;-50
2023/11/05 01:28:36;;;;;;;1.73;0.50;;;9.30;82.50;;;10.56;61.20;94095.31;5071228;28;20040;-52
2023/11/05 01:31:04;;;;;;;0.73;0.70;;;9.20;82.40;;;10.58;61.27;94095.84;5071686;28;20063;-52
2023/11/05 01:33:32;;;;;;;0.93;0.53;;;9.20;82.30;;;10.56;61.09;94087.31;5053454;28;20055;-49
2023/11/05 01:36:00;;;;;;;1.47;0.50;;;9.20;81.80;;;10.65;60.89;94077.84;5071697;28;20443;-50
2023/11/05 01:38:31;;;;;;;0.53;0.30;;;9.30;82.10;;;10.53;60.57;94072.66;5045128;28;20436;-51
2023/11/05 01:40:59;;;;;;;0.40;0.40;;;9.30;81.30;;;10.60;60.65;94067.16;5053549;28;20052;-53
2023/11/05 01:43:27;;;;;;;2.20;0.60;;;9.30;81.60;;;10.57;60.84;94063.13;5053562;28;20499;-52
2023/11/05 01:45:55;;;;;;;0.90;0.60;;;9.30;80.60;;;10.59;60.18;94062.91;5053285;28;20057;-53
2023/11/05 01:48:22;;;;;;;0.90;0.60;;;9.30;80.90;;;10.61;60.26;94053.59;5044524;28;20064;-53
2023/11/05 01:50:50;;;;;;;1.07;0.40;;;9.30;81.10;;;10.66;60.49;94033.44;5053615;28;20059;-53
2023/11/05 01:53:18;;;;;;;1.83;0.60;;;9.40;80.30;;;10.68;60.43;94026.81;5053837;28;20055;-53
2023/11/05 01:55:47;;;;;;;1.40;0.43;;;9.40;80.30;;;10.65;60.00;94029.97;5053107;28;20049;-53
2023/11/05 01:58:15;;;;;;;1.73;0.40;;;9.40;80.00;;;10.58;60.17;94032.03;5036555;28;20049;-50
2023/11/05 02:00:43;;;;;;;0.97;0.60;;;9.40;80.00;;;10.64;59.80;94031.03;5036645;28;20055;-49
2023/11/05 02:03:12;;;;;;;0.47;0.40;;;9.40;79.80;;;10.62;60.05;94027.81;5069525;28;20040;-48
2023/11/05 02:05:40;;;;;;;1.77;0.53;;;9.30;79.30;;;10.61;59.74;94026.22;5051798;28;20424;-51
2023/11/05 02:08:08;;;;;;;2.73;0.47;;;9.40;80.10;;;10.68;59.61;94026.81;5052729;28;20055;-52
2023/11/05 02:10:35;;;;;;;0.40;0.40;;;9.40;79.40;;;10.58;59.68;94024.03;5071207;28;20044;-52
2023/11/05 02:13:03;;;;;;;1.20;0.60;;;9.40;79.00;;;10.51;60.16;94010.94;5071091;28;20040;-53
2023/11/05 02:15:31;;;;;;;1.47;0.43;;;9.30;79.10;;;10.54;59.61;94015.75;5071157;28;20039;-53
2023/11/05 02:17:58;;;;;;;0.60;0.40;;;9.30;79.50;;;10.56;59.89;94002.22;5052380;28;20492;-50
2023/11/05 02:20:26;;;;;;;2.00;0.67;;;9.40;79.40;;;10.62;59.59;93993.22;5052271;28;20052;-52
2023/11/05 02:22:56;;;;;;;1.20;0.40;;;9.40;78.90;;;10.62;59.83;93988.72;5052882;28;20056;-53
2023/11/05 02:25:24;;;;;;;0.67;0.50;;;9.40;78.80;;;10.65;59.39;93987.41;5042331;28;20061;-53
2023/11/05 02:27:52;;;;;;;0.57;0.47;;;9.40;78.80;;;10.65;59.68;93979.44;5052108;28;20416;-54
2023/11/05 02:30:24;;;;;;;0.63;0.57;;;9.40;78.50;;;10.74;59.51;93980.59;5053390;28;20055;-54
2023/11/05 02:32:53;;;;;;;0.77;0.50;;;9.50;78.80;;;10.74;59.06;93979.78;5052991;28;20052;-53
2023/11/05 02:35:20;;;;;;;0.57;0.40;;;9.40;78.50;;;10.63;59.08;93979.69;5053138;28;20424;-53
2023/11/05 02:37:48;;;;;;;0.53;0.40;;;9.40;78.90;;;10.74;59.03;93971.78;5052706;28;20519;-54
2023/11/05 02:40:16;;;;;;;0.30;0.30;;;9.40;78.60;;;10.79;58.91;93971.84;5073151;28;20044;-52
2023/11/05 02:42:43;;;;;;;0.97;0.50;;;9.40;78.80;;;10.78;59.04;93963.06;5074596;28;20048;-51
2023/11/05 02:45:12;;;;;;;0.90;0.57;;;9.50;78.60;;;10.84;58.84;93963.94;5057029;28;20057;-54
2023/11/05 02:47:40;;;;;;;1.97;0.50;;;9.50;78.30;;;10.76;58.65;93965.19;5049096;28;20416;-53
2023/11/05 02:50:08;;;;;;;0.43;0.43;;;9.40;77.20;;;10.77;58.82;93952.69;5074807;28;20048;-52
2023/11/05 02:52:36;;;;;;;0.43;0.40;;;9.40;77.50;;;10.75;58.83;93950.25;5056114;28;20041;-53
2023/11/05 02:55:04;;;;;;;1.30;0.80;;;9.40;77.70;;;10.81;58.78;93959.91;5056374;28;20049;-49
2023/11/05 02:57:34;;;;;;;1.40;0.70;;;9.40;78.10;;;10.82;58.61;93942.88;5064851;28;20040;-51
2023/11/05 03:00:07;;;;;;;1.03;0.60;;;9.40;77.50;;;10.82;58.13;93947.41;5074523;28;20548;-53
2023/11/05 03:02:35;;;;;;;1.20;0.43;;;9.50;77.30;;;10.83;58.36;93944.47;5056446;28;20045;-50
2023/11/05 03:05:04;;;;;;;0.83;0.70;;;9.50;77.10;;;10.83;58.39;93922.41;5075319;28;20044;-51
2023/11/05 03:07:32;;;;;;;0.90;0.70;;;9.50;76.60;;;10.81;57.93;93927.16;5056212;28;20055;-54
2023/11/05 03:10:00;;;;;;;2.43;1.27;;;9.40;77.30;;;10.77;58.09;93923.41;5074451;28;20049;-49
2023/11/05 03:12:28;;;;;;;1.73;0.40;;;9.40;77.00;;;10.83;57.84;93920.53;5056165;28;20051;-51
2023/11/05 03:14:55;;;;;;;1.83;0.50;;;9.40;76.60;;;10.84;57.83;93916.03;5056208;28;20056;-50
2023/11/05 03:17:23;;;;;;;1.33;0.33;;;9.40;76.70;;;10.77;57.91;93913.56;5055967;28;20044;-54
2023/11/05 03:19:51;;;;;;;2.00;1.13;;;9.40;76.10;;;10.81;58.16;93906.69;5075002;28;20323;-53
2023/11/05 03:22:19;;;;;;;0.63;0.53;;;9.50;76.70;;;10.84;58.04;93918.69;5055678;28;20063;-52
2023/11/05 03:24:48;;;;;;;1.43;0.30;;;9.50;76.10;;;10.82;58.04;93913.63;5073687;28;20045;-52
2023/11/05 03:27:15;;;;;;;2.00;0.77;;;9.50;76.20;;;10.87;57.74;93912.84;5074191;28;20051;-48
2023/11/05 03:29:43;;;;;;;1.33;0.40;;;9.60;76.40;;;10.98;57.64;93897.78;5073206;28;20044;-49
2023/11/05 03:32:10;;;;;;;1.10;0.60;;;9.60;75.50;;;11.03;57.60;93903.94;5073660;28;20500;-51
2023/11/05 03:34:38;;;;;;;2.60;1.60;;;9.60;76.00;;;11.05;57.43;93914.34;5055787;28;20049;-51
2023/11/05 03:37:06;;;;;;;3.50;0.80;;;9.60;75.80;;;11.04;57.32;93907.41;5074248;28;20047;-54
2023/11/05 03:39:33;;;;;;;1.20;0.60;;;9.60;75.80;;;11.06;56.89;93910.59;5074049;28;20412;-53
2023/11/05 03:42:01;;;;;;;0.97;0.63;;;9.60;75.50;;;10.99;56.78;93905.50;5073494;28;20048;-49
2023/11/05 03:44:29;;;;;;;2.33;0.80;;;9.60;74.60;;;11.10;57.25;93905.56;5056244;28;20040;-54
2023/11/05 03:46:56;;;;;;;2.00;0.53;;;9.60;75.60;;;10.99;57.08;93913.50;5063918;28;20048;-52
2023/11/05 03:49:24;;;;;;;1.50;0.67;;;9.60;74.30;;;11.02;56.67;93910.31;5072788;28;20056;-52
2023/11/05 03:51:52;;;;;;;1.10;0.50;;;9.60;75.00;;;11.09;56.48;93922.59;5073472;28;20036;-51
2023/11/05 03:54:20;;;;;;;1.87;0.60;;;9.60;74.80;;;11.05;56.54;93911.69;5073774;28;20052;-49
2023/11/05 03:56:47;;;;;;;3.20;1.07;;;9.60;74.70;;;10.98;56.41;93919.06;5056021;28;20047;-49
2023/11/05 03:59:15;;;;;;;1.07;0.80;;;9.60;74.00;;;11.00;56.51;93930.25;5073377;28;20063;-50
2023/11/05 04:01:47;;;;;;;3.17;1.07;;;9.60;74.50;;;11.03;56.78;93922.56;5073323;28;20064;-48
2023/11/05 04:04:15;;;;;;;0.93;0.53;;;9.60;74.00;;;11.06;56.43;93925.78;5056565;28;20056;-54
2023/11/05 04:06:43;;;;;;;2.20;0.90;;;9.60;74.20;;;11.03;56.35;93916.44;5055490;28;20055;-49
2023/11/05 04:09:11;;;;;;;1.83;0.60;;;9.60;73.40;;;11.07;56.20;93922.03;5055646;28;20420;-50
2023/11/05 04:11:39;;;;;;;0.90;0.70;;;9.60;74.10;;;11.08;56.48;93918.34;5072778;28;20419;-48
2023/11/05 04:14:07;;;;;;;1.33;0.80;;;9.60;74.20;;;10.97;56.20;93917.44;5073257;28;20411;-52
2023/11/05 04:16:34;;;;;;;0.63;0.53;;;9.60;74.00;;;10.99;56.52;93923.31;5073329;28;20054;-52
2023/11/05 04:19:02;;;;;;;2.70;0.67;;;9.60;74.10;;;10.93;56.27;93930.47;5073320;28;20040;-50
2023/11/05 04:21:30;;;;;;;3.03;0.57;;;9.60;74.00;;;10.99;56.65;93918.81;5072778;28;20048;-50
2023/11/05 04:23:57;;;;;;;1.37;0.80;;;9.60;74.40;;;10.93;56.76;93913.69;5073802;28;20052;-52
2023/11/05 04:26:25;;;;;;;1.87;0.70;;;9.60;74.40;;;10.99;56.75;93923.31;5073152;28;20496;-50
2023/11/05 04:28:53;;;;;;;0.77;0.50;;;9.60;74.30;;;10.83;56.40;93909.88;5072805;28;20067;-49
2023/11/05 04:31:21;;;;;;;1.00;0.60;;;9.50;74.10;;;10.94;56.23;93917.97;5072727;28;20048;-50
2023/11/05 04:33:49;;;;;;;2.77;0.50;;;9.50;74.20;;;10.95;56.83;93911.56;5065467;28;20047;-49
2023/11/05 04:36:16;;;;;;;4.93;1.67;;;9.50;74.60;;;10.98;56.66;93903.91;5072919;28;20052;-50
2023/11/05 04:38:44;;;;;;;1.83;0.80;;;9.50;74.60;;;10.94;56.38;93908.13;5072918;28;20039;-49
2023/11/05 04:41:12;;;;;;;1.23;0.90;;;9.50;75.20;;;10.95;56.55;93907.09;5072496;28;20068;-50
2023/11/05 04:43:39;;;;;;;2.87;0.63;;;9.50;75.10;;;10.94;56.86;93908.13;5072815;28;20045;-48
2023/11/05 04:46:07;;;;;;;3.87;1.10;;;9.40;75.20;;;10.90;56.89;93907.03;5072875;28;20527;-48
2023/11/05 04:48:35;;;;;;;1.13;0.60;;;9.40;75.40;;;10.93;56.54;93905.72;5072667;28;20045;-48
2023/11/05 04:51:08;;;;;;;1.23;0.77;;;9.40;75.60;;;10.98;56.49;93897.78;5072253;28;20048;-47
2023/11/05 04:53:36;;;;;;;4.20;0.77;;;9.50;75.40;;;10.97;56.76;93906.81;5071407;28;20334;-49
2023/11/05 04:56:05;;;;;;;2.43;0.90;;;9.50;75.50;;;10.93;56.86;93909.16;5072722;28;20295;-49
2023/11/05 04:58:32;;;;;;;3.63;0.90;;;9.50;75.60;;;10.92;56.73;93904.91;5072329;28;20052;-49
2023/11/05 05:01:00;;;;;;;2.47;1.40;;;9.40;75.80;;;10.99;56.57;93920.66;5071931;28;20051;-48
2023/11/05 05:03:28;;;;;;;8.83;3.10;;;9.40;76.00;;;10.95;56.86;93916.91;5072250;28;20048;-49
2023/11/05 05:05:55;;;;;;;9.17;3.73;;;9.40;76.00;;;10.97;56.54;93928.09;5070326;28;20055;-48
2023/11/05 05:08:23;;;;;;;7.73;3.33;;;9.40;75.70;;;11.03;56.90;93925.22;5054218;28;20419;-48
2023/11/05 05:10:51;;;;;;;11.47;4.40;;;9.50;75.90;;;11.07;56.53;93924.72;5063955;28;20052;-49
2023/11/05 05:13:18;;;;;;;6.50;2.80;;;9.60;76.00;;;11.01;56.80;93921.19;5072385;28;20037;-48
2023/11/05 05:15:46;;;;;;;9.17;3.73;;;9.50;75.90;;;11.01;56.75;93922.03;5072088;28;20049;-49
2023/11/05 05:18:14;;;;;;;6.40;2.40;;;9.50;76.10;;;11.06;56.36;93910.59;5072250;28;20052;-49
2023/11/05 05:20:42;;;;;;;2.50;1.80;;;9.50;76.10;;;10.98;56.88;93909.22;5071386;28;20048;-50
2023/11/05 05:23:09;;;;;;;3.43;0.90;;;9.40;76.40;;;10.90;57.15;93903.56;5071759;28;20051;-50
2023/11/05 05:25:37;;;;;;;2.40;0.80;;;9.40;76.80;;;10.93;57.12;93903.06;5072198;28;20044;-47
2023/11/05 05:28:04;;;;;;;2.67;0.90;;;9.40;76.70;;;10.93;57.06;93914.50;5072023;28;20055;-49
2023/11/05 05:30:32;;;;;;;0.77;0.67;;;9.50;76.30;;;10.94;57.17;93905.47;5053866;28;20500;-49
2023/11/05 05:33:00;;;;;;;3.30;1.20;;;9.60;76.00;;;10.98;57.34;93917.19;5071541;28;20048;-49
2023/11/05 05:35:27;;;;;;;0.77;0.57;;;9.70;75.80;;;10.99;57.20;93910.00;5071911;28;20044;-51
2023/11/05 05:37:55;;;;;;;3.27;0.70;;;9.80;75.30;;;11.05;57.34;93901.03;5053456;28;20048;-50
2023/11/05 05:40:23;;;;;;;2.67;0.63;;;9.80;75.40;;;11.10;57.23;93917.03;5071748;28;20040;-50
2023/11/05 05:42:50;;;;;;;0.97;0.67;;;9.90;74.80;;;11.10;57.34;93917.03;5071407;28;20041;-52
2023/11/05 05:45:18;;;;;;;0.70;0.70;;;10.00;74.60;;;11.12;57.29;93916.78;5071468;28;20055;-53
2023/11/05 05:47:46;;;;;;;1.20;0.53;;;10.00;74.50;;;11.13;57.31;93916.53;5071425;28;20045;-51
2023/11/05 05:50:14;;;;;;;0.40;0.40;;;10.10;74.20;;;11.21;57.33;93932.00;5071760;28;20051;-51
2023/11/05 05:52:42;;;;;;;1.43;1.33;;;10.20;74.00;;;11.31;56.76;93925.94;5071152;28;20048;-49
2023/11/05 05:55:14;;;;;;;2.07;0.97;;;10.20;73.40;;;11.42;57.06;93924.16;5071057;28;20044;-53
2023/11/05 05:57:42;;;;;;;1.70;0.70;;;10.30;74.10;;;11.43;56.84;93926.56;5071455;28;20419;-50
2023/11/05 06:00:11;;;;;;;3.73;0.60;;;10.30;73.50;;;11.47;56.53;93937.50;5071622;28;20040;-50
2023/11/05 06:02:39;;;;;;;0.68;0.40;;;10.40;72.90;;;11.38;56.67;93931.88;5053484;28;20064;-50
2023/11/05 06:05:08;;;;;;;0.50;0.40;;;10.40;71.80;;;11.51;56.33;93933.25;5071671;28;20041;-53
2023/11/05 06:07:36;;;;;;;1.40;0.50;;;10.50;72.50;;;11.53;56.47;93931.13;5071166;28;20044;-53
2023/11/05 06:10:07;;;;;;;2.43;0.70;;;10.50;72.00;;;11.66;56.20;93923.75;5053742;28;20040;-53
2023/11/05 06:12:34;;;;;;;2.53;0.40;;;10.50;71.40;;;11.66;55.95;93923.75;5070552;28;20048;-52
2023/11/05 06:15:02;;;;;;;0.98;0.52;;;10.60;71.70;;;11.63;55.88;93933.06;5053324;28;20515;-49
2023/11/05 06:17:42;;;;;;;1.13;0.50;;;10.60;71.00;;;11.55;56.05;93937.00;5071087;28;20041;-48
2023/11/05 06:20:11;;;;;;;0.50;0.30;;;10.60;70.80;;;11.53;55.67;93915.16;5053617;28;20043;-50
2023/11/05 06:22:39;;;;;;;0.40;0.33;;;10.70;71.00;;;11.61;56.06;93917.34;5070705;28;20056;-50
2023/11/05 06:25:10;;;;;;;1.90;0.53;;;10.70;71.20;;;11.60;55.74;93926.38;5071161;28;20045;-53
2023/11/05 06:27:39;;;;;;;0.40;0.40;;;10.70;71.20;;;11.67;55.92;93936.00;5052527;28;20044;-51
2023/11/05 06:30:09;;;;;;;1.27;0.87;;;10.70;71.20;;;11.77;55.69;93933.41;5071327;28;20435;-53
2023/11/05 06:32:38;;;;;;;0.67;0.50;;;10.70;71.60;;;11.70;55.83;93936.31;5070676;28;20048;-54
2023/11/05 06:35:07;;;;;;;2.43;0.60;;;10.70;71.20;;;11.73;55.72;93950.97;5070997;28;20393;-53
2023/11/05 06:37:35;;;;;;;1.87;0.67;;;10.70;71.50;;;11.83;55.43;93935.03;5070607;28;20037;-52
2023/11/05 06:40:04;;;;;;;1.60;0.60;;;10.80;71.80;;;11.68;56.05;93949.09;5071122;28;20040;-54
2023/11/05 06:42:32;;;;;;;1.42;0.50;;;10.80;71.30;;;11.75;56.02;93960.31;5070779;28;20051;-53
2023/11/05 06:44:59;;;;;;;0.55;0.50;;;10.80;71.10;;;11.75;56.10;93965.66;5070935;28;20048;-53
2023/11/05 06:47:27;;;;;;;0.90;0.40;;;10.80;71.80;;;11.65;56.12;93970.94;5070950;28;20044;-51
2023/11/05 06:49:55;;;;;;;0.53;0.50;;;10.90;71.60;;;11.78;56.25;93967.00;5070816;28;20412;-53
2023/11/05 06:52:24;;;;;;;0.47;0.40;;;10.90;71.40;;;11.89;55.97;93984.66;5070988;28;20071;-54
2023/11/05 06:54:52;;;;;;;0.47;0.40;;;10.90;72.00;;;11.80;56.32;94002.16;5070881;28;20523;-49
2023/11/05 06:57:20;;;;;;;0.77;0.47;;;10.90;72.20;;;11.87;56.83;93992.09;5070576;28;20064;-51
2023/11/05 06:59:47;;;;;;;2.73;0.90;;;11.00;72.70;;;11.91;56.93;93990.53;5070945;28;20043;-49
2023/11/05 07:02:15;;;;;;;1.00;0.43;;;11.00;73.50;;;12.07;56.71;93995.94;5070657;28;20044;-51
2023/11/05 07:04:42;;;;;;;1.17;0.57;;;11.00;73.80;;;11.93;57.24;94001.75;5070289;28;20048;-51
2023/11/05 07:07:10;;;;;;;1.03;0.40;;;11.00;74.80;;;12.06;57.28;94016.50;5070607;28;20044;-54
2023/11/05 07:09:38;;;;;;;0.30;0.30;;;11.00;75.50;;;12.02;57.55;94002.06;5070783;28;20397;-52
2023/11/05 07:12:06;;;;;;;1.27;0.50;;;10.90;76.30;;;12.07;57.60;94009.28;5070521;28;20048;-52
2023/11/05 07:14:33;;;;;;;0.45;0.45;;;10.90;76.60;;;12.07;57.75;94014.63;5070401;28;20207;-51
2023/11/05 07:17:04;;;;;;;0.35;0.30;;;10.90;76.40;;;12.09;57.89;94007.16;5053015;28;20048;-51
2023/11/05 07:19:32;;;;;;;0.52;0.40;;;10.90;76.80;;;12.10;57.94;94006.09;5070426;28;20041;-50
2023/11/05 07:22:00;;;;;;;0.73;0.57;;;10.90;77.30;;;12.10;57.78;94006.09;5070334;28;20037;-53
2023/11/05 07:24:27;;;;;;;0.45;0.40;;;10.90;77.30;;;11.97;57.99;94010.03;5070756;28;20037;-54
2023/11/05 07:26:55;;;;;;;0.25;0.25;;;10.80;76.90;;;11.89;58.43;94002.50;5074333;28;20523;-53
2023/11/05 07:29:23;;;;;;;0.93;0.63;;;10.80;77.00;;;11.97;57.94;94002.03;5055833;28;20049;-52
2023/11/05 07:31:51;;;;;;;0.57;0.57;;;10.80;77.20;;;11.90;58.04;93991.59;5073668;28;20053;-53
2023/11/05 07:34:19;;;;;;;0.40;0.35;;;10.80;77.60;;;11.94;58.38;94015.88;5073994;28;20051;-52
2023/11/05 07:36:46;;;;;;;0.65;0.40;;;10.70;77.80;;;11.93;58.54;94011.63;5056306;28;20044;-52
2023/11/05 07:39:14;;;;;;;0.25;0.25;;;10.70;78.90;;;11.90;58.55;94020.13;5073945;28;20033;-49
2023/11/05 07:41:41;;;;;;;0.38;0.38;;;10.80;78.20;;;11.92;58.78;94020.66;5073726;28;20040;-53
2023/11/05 07:44:09;;;;;;;0.88;0.50;;;10.80;78.40;;;11.93;58.64;93991.09;5073965;28;20040;-52
2023/11/05 07:46:37;;;;;;;0.30;0.30;;;10.80;78.70;;;11.89;59.15;94034.47;5073861;28;20044;-53
2023/11/05 07:49:05;;;;;;;0.43;0.43;;;10.70;79.20;;;11.83;59.15;94033.66;5073633;28;20432;-52
2023/11/05 07:51:33;;;;;;;1.88;0.40;;;10.70;78.80;;;11.74;59.12;94035.97;5073925;28;20043;-52
2023/11/05 07:54:02;;;;;;;1.25;0.60;;;10.70;78.70;;;11.80;59.30;94050.13;5073299;28;20044;-53
2023/11/05 07:56:30;;;;;;;0.23;0.23;;;10.80;78.50;;;11.71;59.54;94055.16;5074093;28;20044;-50
2023/11/05 07:58:58;;;;;;;0.43;0.43;;;10.80;78.30;;;11.88;59.06;94057.66;5074040;28;20037;-52
2023/11/05 08:01:26;;;;;;;1.13;0.30;;;10.80;78.50;;;11.95;58.77;94063.59;5073519;28;20039;-49
2023/11/05 08:03:54;;;;;;;0.63;0.38;;;10.90;78.00;;;12.01;58.87;94067.91;5053834;28;20423;-47
2023/11/05 08:06:21;;;;;;;1.10;0.43;;;10.90;77.80;;;12.02;58.72;94095.38;5072712;28;20046;-49
2023/11/05 08:08:51;;;;;;;0.90;0.50;;;11.00;76.90;;;12.04;58.91;94090.59;5072559;28;20419;-49
2023/11/05 08:11:19;;;;;;;0.57;0.30;;;11.10;77.00;;;12.01;59.00;94097.22;5072452;28;20048;-49
2023/11/05 08:13:47;;;;;;;0.40;0.40;;;11.10;76.50;;;12.13;58.65;94096.22;5072458;28;20388;-49
2023/11/05 08:16:14;;;;;;;1.52;0.50;;;11.20;76.10;;;12.09;58.44;94109.25;5072037;28;20437;-51
2023/11/05 08:18:43;;;;;;;0.93;0.52;;;11.30;75.80;;;12.14;58.68;94135.19;5054504;28;20037;-51
2023/11/05 08:21:10;;;;;;;0.75;0.75;;;11.40;74.80;;;12.21;58.22;94135.72;5072547;28;20040;-50
2023/11/05 08:23:38;;;;;;;0.40;0.40;;;11.50;74.80;;;12.29;58.28;94134.44;5072313;28;20045;-49
2023/11/05 08:26:06;;;;;;;0.40;0.30;;;11.50;74.90;;;12.39;58.11;94146.00;5054558;28;20044;-47
2023/11/05 08:28:33;;;;;;;0.55;0.38;;;11.60;74.80;;;12.44;58.04;94136.41;5072088;28;20049;-49
2023/11/05 08:31:05;;;;;;;1.42;1.00;;;11.60;74.40;;;12.27;58.19;94136.56;5053637;28;20053;-50
2023/11/05 08:33:33;;;;;;;0.40;0.40;;;11.50;75.10;;;12.40;58.15;94152.13;5072276;28;20095;-52
2023/11/05 08:36:01;;;;;;;0.73;0.50;;;11.50;75.10;;;12.54;57.79;94145.28;5070939;28;20407;-50
2023/11/05 08:38:28;;;;;;;1.45;0.57;;;11.50;75.30;;;12.63;57.81;94160.81;5054383;28;20058;-54
2023/11/05 08:40:56;;;;;;;0.47;0.30;;;11.50;75.40;;;12.71;57.50;94155.75;5071705;28;20064;-54
2023/11/05 08:43:24;;;;;;;0.73;0.50;;;11.50;75.30;;;12.65;57.12;94167.47;5071715;28;20040;-51
2023/11/05 08:45:51;;;;;;;1.35;0.75;;;11.50;75.00;;;12.59;57.44;94163.97;5071982;28;20053;-52
2023/11/05 08:48:19;;;;;;;2.08;0.70;;;11.50;75.50;;;12.64;57.72;94173.91;5071598;28;20107;-48
2023/11/05 08:50:47;;;;;;;3.47;1.33;;;11.50;75.40;;;12.63;57.66;94179.47;5071542;28;20048;-51
2023/11/05 08:53:15;;;;;;;5.88;3.47;;;11.60;75.50;;;12.71;57.62;94190.47;5071782;28;20044;-50
2023/11/05 08:55:42;;;;;;;0.70;0.63;;;11.70;75.80;;;12.73;57.64;94196.34;5070751;28;20055;-52
2023/11/05 08:58:16;;;;;;;1.70;0.60;;;11.80;75.10;;;12.90;57.55;94196.16;5064064;28;20056;-49
2023/11/05 09:00:45;;;;;;;0.70;0.70;;;11.90;74.80;;;12.97;57.55;94206.63;5055663;28;20047;-53
2023/11/05 09:03:12;;;;;;;0.60;0.55;;;12.00;75.10;;;13.11;57.10;94196.28;5071969;28;20407;-50
2023/11/05 09:05:40;;;;;;;0.20;0.20;;;12.10;73.80;;;13.12;56.77;94216.56;5078592;28;20040;-52
2023/11/05 09:08:09;;;;;;;0.45;0.40;;;12.10;73.70;;;13.16;56.86;94231.81;5074041;28;20052;-52
2023/11/05 09:10:36;;;;;;;0.40;0.40;;;12.20;73.30;;;13.04;56.42;94236.53;5073918;28;20476;-52
2023/11/05 09:13:04;;;;;;;0.73;0.32;;;12.20;72.20;;;13.15;56.36;94237.41;5075430;28;20044;-48
2023/11/05 09:15:32;;;;;;;0.55;0.47;;;12.20;72.40;;;13.25;56.40;94245.47;5078344;28;20051;-48
2023/11/05 09:18:00;;;;;;;0.82;0.52;;;12.30;72.80;;;13.19;55.69;94260.66;5058001;28;20051;-51
2023/11/05 09:20:28;;;;;;;1.35;0.40;;;12.30;70.70;;;13.26;55.83;94270.28;5070126;28;20051;-51
2023/11/05 09:23:00;;;;;;;2.08;0.70;;;12.20;72.50;;;13.20;55.99;94272.97;5070825;28;20048;-48
2023/11/05 09:25:28;;;;;;;0.77;0.52;;;12.20;72.50;;;13.19;56.19;94275.88;5071092;28;20040;-52
2023/11/05 09:27:56;;;;;;;1.30;0.75;;;12.10;73.40;;;13.19;56.59;94287.38;5070999;28;20048;-49
2023/11/05 09:30:23;;;;;;;2.63;1.45;;;12.00;74.30;;;13.17;56.54;94289.50;5071014;28;20044;-49
2023/11/05 09:32:51;;;;;;;3.85;2.15;;;11.90;74.80;;;13.15;56.68;94304.97;5070506;28;20055;-48
2023/11/05 09:35:19;;;;;;;0.95;0.75;;;11.90;75.70;;;13.17;56.70;94318.06;5070621;28;20040;-52
2023/11/05 09:37:47;;;;;;;2.88;1.35;;;11.90;74.90;;;13.14;56.73;94305.22;5071313;28;20627;-50
2023/11/05 09:40:16;;;;;;;0.63;0.50;;;11.90;75.60;;;13.16;56.43;94332.47;5053914;28;20040;-48
2023/11/05 09:43:03;;;;;;;0.50;0.38;;;11.90;74.20;;;13.12;56.79;94328.72;5071339;28;20059;-51
2023/11/05 09:45:35;;;;;;;2.80;1.20;;;11.90;75.40;;;13.24;57.00;94340.03;5065756;28;20045;-50
2023/11/05 09:48:06;;;;;;;1.00;0.70;;;12.00;76.50;;;13.20;57.06;94346.94;5070875;28;20051;-49
2023/11/05 09:50:36;;;;;;;2.90;0.95;;;12.00;76.10;;;13.26;57.00;94363.78;5071371;28;20040;-51
2023/11/05 09:53:12;;;;;;;1.85;0.70;;;12.00;75.90;;;13.11;57.21;94354.63;5071490;28;20110;-46
2023/11/05 09:55:47;;;;;;;0.68;0.60;;;12.00;75.20;;;13.04;56.80;94385.28;5071514;28;20044;-48
2023/11/05 09:58:15;;;;;;;0.50;0.43;;;12.00;74.40;;;12.86;57.53;94379.28;5071403;28;20036;-48
2023/11/05 10:00:43;;;;;;;0.80;0.73;;;11.90;74.50;;;12.94;57.65;94378.00;5071003;28;20389;-50
2023/11/05 10:03:12;;;;;;;0.50;0.40;;;11.90;75.30;;;13.09;56.94;94385.34;5071410;28;20524;-50
2023/11/05 10:05:44;;;;;;;1.92;0.70;;;12.00;75.80;;;13.17;57.46;94398.19;5071449;28;20048;-48
2023/11/05 10:08:14;;;;;;;1.35;0.75;;;12.00;76.30;;;13.16;57.44;94392.06;5070998;28;20439;-46
2023/11/05 10:10:44;;;;;;;0.47;0.47;;;12.00;76.30;;;12.97;57.17;94407.69;5053313;28;20048;-52
2023/11/05 10:13:14;;;;;;;1.15;0.75;;;11.90;74.40;;;13.03;57.57;94402.34;5071163;28;20045;-49
2023/11/05 10:15:43;;;;;;;0.47;0.35;;;11.90;76.20;;;13.09;57.68;94412.03;5053755;28;20047;-49
2023/11/05 10:18:17;;;;;;;0.40;0.40;;;11.90;76.20;;;13.20;57.45;94419.03;5053041;28;20040;-48
2023/11/05 10:20:58;;;;;;;0.30;0.30;;;12.00;76.30;;;13.03;57.81;94410.38;5070900;28;20412;-48
2023/11/05 10:23:26;;;;;;;1.17;0.35;;;11.90;76.20;;;13.07;57.65;94427.50;5063954;28;20047;-50
2023/11/05 10:25:55;;;;;;;0.40;0.40;;;11.90;76.00;;;13.13;57.50;94437.97;5071044;28;20414;-52
2023/11/05 10:28:24;;;;;;;0.57;0.30;;;12.00;76.20;;;13.25;57.54;94451.13;5070234;28;20487;-50